Huvudsida
METAR-TAF:

METAR-TAF

Flygplatser :

Roskilde, Danmark

Roskildes flygplats

latitud: 55-35N, longitud: 012-08E, höjd: 44 m

Aktuellt väderrapport

Denna rapport gjordes för 31 minuter sedan, klockan 02:50 UTC
Vind 1 kt från sydväst
Temperatur 0°C
Fuktighet 100%
Tryck 998 hPa
Sikt: 3300 m
fuktdis

METAR: EKRK 190250Z AUTO 23001KT 3300NDV BR FEW003/// SCT005/// BKN011/// BKN055/// 00/M00 Q0998

Tid: 04:21 (03:21 UTC)

Väderprognos

Denna rapport gjordes för 59 minuter sedan, klockan 02:22 UTC
Prognos gäller från 19 kl. 03 UTC till 19 kl. 12 UTC
Vind 3 kt från väst
Sikt: 4000 m
Få moln på en höjd av 800 ft
Brutna moln på en höjd av 1000 ft
fuktdis
Temporärt
från 19 kl. 03 UTC till 19 kl. 10 UTC
Sikt: 1200 m
Brutna moln på en höjd av 300 ft
dimbankar

TAF: EKRK 190222Z 1903/1912 26003KT 4000 BR FEW008 BKN010 TEMPO 1903/1910 1200 BCFG BKN003

Aktuella väderrapporter och prognoser från 4000 flygplatser (METAR- och TAF-rapporter).

De tillgängliga stationerna syns som gula och röda prickar på kartan.

För musen över prickarna för att se namnen på stationerna.

Klicka sedan för att få väderrapporter och prognoser.

För att ändra kartan: Klicka på de gröna knapparna med ett svart kors på för att zooma in; den gröna knappen med ett streck på för att zooma ut; eller på de gröna pilarna för angränsande kartor.


METAR-TAF: